sensor_id;sensor_type;location;lat;lon;timestamp;P1;durP1;ratioP1;P2;durP2;ratioP2
74459;SDS011;62902;48.854;9.292;2023-02-03T00:00:03;858.53;;;634.83;;
74459;SDS011;62902;48.854;9.292;2023-02-03T00:02:36;859.85;;;631.63;;
74459;SDS011;62902;48.854;9.292;2023-02-03T00:05:03;865.70;;;638.30;;
74459;SDS011;62902;48.854;9.292;2023-02-03T00:07:29;859.47;;;629.87;;
74459;SDS011;62902;48.854;9.292;2023-02-03T00:09:56;862.65;;;636.97;;
74459;SDS011;62902;48.854;9.292;2023-02-03T00:12:23;861.63;;;634.47;;
74459;SDS011;62902;48.854;9.292;2023-02-03T00:14:49;862.40;;;633.97;;
74459;SDS011;62902;48.854;9.292;2023-02-03T00:17:16;864.00;;;633.30;;
74459;SDS011;62902;48.854;9.292;2023-02-03T00:19:43;864.88;;;627.90;;
74459;SDS011;62902;48.854;9.292;2023-02-03T00:22:09;866.50;;;625.83;;
74459;SDS011;62902;48.854;9.292;2023-02-03T00:24:38;862.60;;;622.75;;
74459;SDS011;62902;48.854;9.292;2023-02-03T00:27:05;863.67;;;632.25;;
74459;SDS011;62902;48.854;9.292;2023-02-03T00:29:31;865.60;;;631.80;;
74459;SDS011;62902;48.854;9.292;2023-02-03T00:31:58;866.07;;;632.77;;
74459;SDS011;62902;48.854;9.292;2023-02-03T00:34:28;864.35;;;632.30;;
74459;SDS011;62902;48.854;9.292;2023-02-03T00:36:55;866.60;;;635.10;;
74459;SDS011;62902;48.854;9.292;2023-02-03T00:39:22;870.73;;;637.47;;
74459;SDS011;62902;48.854;9.292;2023-02-03T00:41:49;873.38;;;643.55;;
74459;SDS011;62902;48.854;9.292;2023-02-03T00:44:15;869.60;;;634.22;;
74459;SDS011;62902;48.854;9.292;2023-02-03T00:46:42;873.08;;;636.53;;
74459;SDS011;62902;48.854;9.292;2023-02-03T00:49:09;866.05;;;632.92;;
74459;SDS011;62902;48.854;9.292;2023-02-03T00:51:36;867.45;;;634.08;;
74459;SDS011;62902;48.854;9.292;2023-02-03T00:54:02;867.50;;;634.05;;
74459;SDS011;62902;48.854;9.292;2023-02-03T00:56:29;867.40;;;631.92;;
74459;SDS011;62902;48.854;9.292;2023-02-03T00:58:55;862.47;;;628.63;;
74459;SDS011;62902;48.854;9.292;2023-02-03T01:01:22;855.55;;;605.67;;
74459;SDS011;62902;48.854;9.292;2023-02-03T01:03:49;859.08;;;612.45;;
74459;SDS011;62902;48.854;9.292;2023-02-03T01:06:19;853.88;;;614.03;;
74459;SDS011;62902;48.854;9.292;2023-02-03T01:08:46;807.85;;;678.22;;
74459;SDS011;62902;48.854;9.292;2023-02-03T01:11:14;777.58;;;617.97;;
74459;SDS011;62902;48.854;9.292;2023-02-03T01:13:43;589.63;;;334.73;;
74459;SDS011;62902;48.854;9.292;2023-02-03T01:16:10;555.70;;;290.38;;
74459;SDS011;62902;48.854;9.292;2023-02-03T01:18:39;526.05;;;284.13;;
74459;SDS011;62902;48.854;9.292;2023-02-03T01:23:43;501.77;;;279.50;;
74459;SDS011;62902;48.854;9.292;2023-02-03T01:26:12;502.30;;;290.08;;
74459;SDS011;62902;48.854;9.292;2023-02-03T01:28:42;511.25;;;306.63;;
74459;SDS011;62902;48.854;9.292;2023-02-03T01:33:43;500.52;;;301.48;;
74459;SDS011;62902;48.854;9.292;2023-02-03T01:36:14;493.48;;;304.70;;
74459;SDS011;62902;48.854;9.292;2023-02-03T01:38:42;521.03;;;373.92;;
74459;SDS011;62902;48.854;9.292;2023-02-03T01:41:11;518.63;;;389.60;;
74459;SDS011;62902;48.854;9.292;2023-02-03T01:43:41;523.28;;;387.38;;
74459;SDS011;62902;48.854;9.292;2023-02-03T01:51:38;508.98;;;348.20;;
74459;SDS011;62902;48.854;9.292;2023-02-03T01:54:10;513.63;;;350.20;;
74459;SDS011;62902;48.854;9.292;2023-02-03T01:56:39;502.80;;;339.58;;
74459;SDS011;62902;48.854;9.292;2023-02-03T01:59:07;492.27;;;323.85;;
74459;SDS011;62902;48.854;9.292;2023-02-03T02:01:34;488.58;;;319.90;;
74459;SDS011;62902;48.854;9.292;2023-02-03T02:04:02;486.83;;;311.27;;
74459;SDS011;62902;48.854;9.292;2023-02-03T02:06:29;486.10;;;309.05;;
74459;SDS011;62902;48.854;9.292;2023-02-03T02:08:56;478.42;;;299.88;;
74459;SDS011;62902;48.854;9.292;2023-02-03T02:11:26;471.35;;;289.48;;
74459;SDS011;62902;48.854;9.292;2023-02-03T02:13:53;476.10;;;295.67;;
74459;SDS011;62902;48.854;9.292;2023-02-03T02:30:15;378.02;;;219.07;;
74459;SDS011;62902;48.854;9.292;2023-02-03T02:35:54;344.80;;;193.80;;
74459;SDS011;62902;48.854;9.292;2023-02-03T02:38:37;313.75;;;173.35;;
74459;SDS011;62902;48.854;9.292;2023-02-03T02:41:15;318.63;;;175.02;;
74459;SDS011;62902;48.854;9.292;2023-02-03T02:43:48;314.50;;;172.88;;
74459;SDS011;62902;48.854;9.292;2023-02-03T02:46:26;295.52;;;160.43;;
74459;SDS011;62902;48.854;9.292;2023-02-03T02:51:46;284.75;;;155.65;;
74459;SDS011;62902;48.854;9.292;2023-02-03T02:54:17;371.10;;;235.30;;
74459;SDS011;62902;48.854;9.292;2023-02-03T02:56:47;351.05;;;221.30;;
74459;SDS011;62902;48.854;9.292;2023-02-03T02:59:16;282.83;;;157.80;;
74459;SDS011;62902;48.854;9.292;2023-02-03T03:01:42;262.60;;;141.63;;
74459;SDS011;62902;48.854;9.292;2023-02-03T03:04:10;264.65;;;142.73;;
74459;SDS011;62902;48.854;9.292;2023-02-03T03:06:41;245.32;;;133.07;;
74459;SDS011;62902;48.854;9.292;2023-02-03T03:09:11;254.98;;;138.48;;
74459;SDS011;62902;48.854;9.292;2023-02-03T03:12:04;253.88;;;138.63;;
74459;SDS011;62902;48.854;9.292;2023-02-03T03:14:34;248.70;;;135.05;;
74459;SDS011;62902;48.854;9.292;2023-02-03T03:17:03;243.25;;;132.20;;
74459;SDS011;62902;48.854;9.292;2023-02-03T03:19:32;238.85;;;129.88;;
74459;SDS011;62902;48.854;9.292;2023-02-03T03:22:01;249.80;;;135.98;;
74459;SDS011;62902;48.854;9.292;2023-02-03T03:24:31;248.93;;;135.50;;
74459;SDS011;62902;48.854;9.292;2023-02-03T03:27:01;247.70;;;136.38;;
74459;SDS011;62902;48.854;9.292;2023-02-03T03:32:01;241.25;;;130.65;;
74459;SDS011;62902;48.854;9.292;2023-02-03T03:34:28;234.93;;;128.23;;
74459;SDS011;62902;48.854;9.292;2023-02-03T03:40:08;240.15;;;131.85;;
74459;SDS011;62902;48.854;9.292;2023-02-03T03:43:00;247.00;;;136.70;;
74459;SDS011;62902;48.854;9.292;2023-02-03T03:45:34;253.32;;;138.05;;
74459;SDS011;62902;48.854;9.292;2023-02-03T03:48:20;243.80;;;133.65;;
74459;SDS011;62902;48.854;9.292;2023-02-03T03:51:03;240.20;;;132.40;;
74459;SDS011;62902;48.854;9.292;2023-02-03T03:53:34;243.18;;;133.98;;
74459;SDS011;62902;48.854;9.292;2023-02-03T03:56:04;245.18;;;133.88;;
74459;SDS011;62902;48.854;9.292;2023-02-03T03:58:32;250.10;;;137.90;;
74459;SDS011;62902;48.854;9.292;2023-02-03T04:01:00;249.32;;;137.57;;
74459;SDS011;62902;48.854;9.292;2023-02-03T04:03:30;300.83;;;191.52;;
74459;SDS011;62902;48.854;9.292;2023-02-03T04:05:58;278.95;;;157.20;;
74459;SDS011;62902;48.854;9.292;2023-02-03T04:08:25;264.85;;;146.77;;
74459;SDS011;62902;48.854;9.292;2023-02-03T04:10:52;258.48;;;142.18;;
74459;SDS011;62902;48.854;9.292;2023-02-03T04:13:19;256.48;;;139.82;;
74459;SDS011;62902;48.854;9.292;2023-02-03T04:15:45;252.32;;;138.02;;
74459;SDS011;62902;48.854;9.292;2023-02-03T04:18:13;252.30;;;137.57;;
74459;SDS011;62902;48.854;9.292;2023-02-03T04:23:07;251.60;;;140.32;;
74459;SDS011;62902;48.854;9.292;2023-02-03T04:25:34;246.45;;;136.77;;
74459;SDS011;62902;48.854;9.292;2023-02-03T04:28:01;244.35;;;135.80;;
74459;SDS011;62902;48.854;9.292;2023-02-03T04:30:28;245.50;;;135.27;;
74459;SDS011;62902;48.854;9.292;2023-02-03T04:32:55;241.60;;;132.50;;
74459;SDS011;62902;48.854;9.292;2023-02-03T04:35:21;235.93;;;130.45;;
74459;SDS011;62902;48.854;9.292;2023-02-03T04:37:48;227.75;;;126.35;;
74459;SDS011;62902;48.854;9.292;2023-02-03T04:40:15;222.93;;;123.60;;
74459;SDS011;62902;48.854;9.292;2023-02-03T04:42:42;220.98;;;122.78;;
74459;SDS011;62902;48.854;9.292;2023-02-03T04:45:09;217.73;;;122.55;;
74459;SDS011;62902;48.854;9.292;2023-02-03T04:47:36;210.45;;;117.97;;
74459;SDS011;62902;48.854;9.292;2023-02-03T04:50:04;211.00;;;118.72;;
74459;SDS011;62902;48.854;9.292;2023-02-03T04:52:31;212.15;;;118.97;;
74459;SDS011;62902;48.854;9.292;2023-02-03T04:54:58;208.80;;;117.65;;
74459;SDS011;62902;48.854;9.292;2023-02-03T04:57:24;205.23;;;115.78;;
74459;SDS011;62902;48.854;9.292;2023-02-03T04:59:51;203.27;;;113.50;;
74459;SDS011;62902;48.854;9.292;2023-02-03T05:02:18;200.88;;;113.57;;
74459;SDS011;62902;48.854;9.292;2023-02-03T05:04:44;204.95;;;115.53;;
74459;SDS011;62902;48.854;9.292;2023-02-03T05:07:11;199.23;;;112.93;;
74459;SDS011;62902;48.854;9.292;2023-02-03T05:09:37;202.02;;;113.22;;
74459;SDS011;62902;48.854;9.292;2023-02-03T05:12:04;203.32;;;115.45;;
74459;SDS011;62902;48.854;9.292;2023-02-03T05:14:31;196.90;;;111.80;;
74459;SDS011;62902;48.854;9.292;2023-02-03T05:16:57;192.65;;;109.32;;
74459;SDS011;62902;48.854;9.292;2023-02-03T05:19:24;201.30;;;114.40;;
74459;SDS011;62902;48.854;9.292;2023-02-03T05:21:50;206.70;;;117.47;;
74459;SDS011;62902;48.854;9.292;2023-02-03T05:24:17;209.88;;;119.78;;
74459;SDS011;62902;48.854;9.292;2023-02-03T05:26:43;226.02;;;131.70;;
74459;SDS011;62902;48.854;9.292;2023-02-03T05:29:10;235.02;;;137.35;;
74459;SDS011;62902;48.854;9.292;2023-02-03T05:31:37;249.73;;;146.85;;
74459;SDS011;62902;48.854;9.292;2023-02-03T05:34:03;257.30;;;155.50;;
74459;SDS011;62902;48.854;9.292;2023-02-03T05:36:30;271.75;;;171.80;;
74459;SDS011;62902;48.854;9.292;2023-02-03T05:38:57;288.42;;;184.38;;
74459;SDS011;62902;48.854;9.292;2023-02-03T05:41:23;289.17;;;189.88;;
74459;SDS011;62902;48.854;9.292;2023-02-03T05:44:08;277.17;;;180.95;;
74459;SDS011;62902;48.854;9.292;2023-02-03T05:46:35;282.77;;;184.27;;
74459;SDS011;62902;48.854;9.292;2023-02-03T05:49:02;275.58;;;179.38;;
74459;SDS011;62902;48.854;9.292;2023-02-03T05:51:29;283.45;;;181.70;;
74459;SDS011;62902;48.854;9.292;2023-02-03T05:53:55;278.15;;;180.23;;
74459;SDS011;62902;48.854;9.292;2023-02-03T05:56:22;267.77;;;169.50;;
74459;SDS011;62902;48.854;9.292;2023-02-03T05:58:48;272.88;;;174.20;;
74459;SDS011;62902;48.854;9.292;2023-02-03T06:01:18;265.70;;;169.05;;
74459;SDS011;62902;48.854;9.292;2023-02-03T06:03:45;271.48;;;173.07;;
74459;SDS011;62902;48.854;9.292;2023-02-03T06:06:12;265.95;;;169.13;;
74459;SDS011;62902;48.854;9.292;2023-02-03T06:08:38;259.10;;;164.05;;
74459;SDS011;62902;48.854;9.292;2023-02-03T06:11:05;266.60;;;172.35;;
74459;SDS011;62902;48.854;9.292;2023-02-03T06:13:32;271.23;;;173.60;;
74459;SDS011;62902;48.854;9.292;2023-02-03T06:15:58;262.05;;;167.88;;
74459;SDS011;62902;48.854;9.292;2023-02-03T06:18:25;254.30;;;160.70;;
74459;SDS011;62902;48.854;9.292;2023-02-03T06:20:51;259.65;;;165.35;;
74459;SDS011;62902;48.854;9.292;2023-02-03T06:23:18;259.75;;;163.38;;
74459;SDS011;62902;48.854;9.292;2023-02-03T06:25:48;265.55;;;165.65;;
74459;SDS011;62902;48.854;9.292;2023-02-03T06:28:15;277.35;;;176.55;;
74459;SDS011;62902;48.854;9.292;2023-02-03T06:30:42;286.75;;;180.27;;
74459;SDS011;62902;48.854;9.292;2023-02-03T06:33:09;275.80;;;173.85;;
74459;SDS011;62902;48.854;9.292;2023-02-03T06:35:35;277.23;;;173.27;;
74459;SDS011;62902;48.854;9.292;2023-02-03T06:38:02;280.77;;;174.93;;
74459;SDS011;62902;48.854;9.292;2023-02-03T06:40:28;280.42;;;178.18;;
74459;SDS011;62902;48.854;9.292;2023-02-03T06:42:56;277.38;;;174.70;;
74459;SDS011;62902;48.854;9.292;2023-02-03T06:45:23;269.67;;;170.18;;
74459;SDS011;62902;48.854;9.292;2023-02-03T06:47:50;267.92;;;169.13;;
74459;SDS011;62902;48.854;9.292;2023-02-03T06:50:17;269.90;;;172.02;;
74459;SDS011;62902;48.854;9.292;2023-02-03T06:52:43;262.35;;;165.77;;
74459;SDS011;62902;48.854;9.292;2023-02-03T06:55:10;267.17;;;168.20;;
74459;SDS011;62902;48.854;9.292;2023-02-03T06:57:46;275.33;;;177.20;;
74459;SDS011;62902;48.854;9.292;2023-02-03T07:00:15;323.20;;;267.13;;
74459;SDS011;62902;48.854;9.292;2023-02-03T07:02:44;319.85;;;218.55;;
74459;SDS011;62902;48.854;9.292;2023-02-03T07:05:11;320.17;;;217.52;;
74459;SDS011;62902;48.854;9.292;2023-02-03T07:07:38;320.95;;;218.73;;
74459;SDS011;62902;48.854;9.292;2023-02-03T07:10:04;319.63;;;217.48;;
74459;SDS011;62902;48.854;9.292;2023-02-03T07:12:32;320.35;;;213.00;;
74459;SDS011;62902;48.854;9.292;2023-02-03T07:14:58;314.95;;;210.30;;
74459;SDS011;62902;48.854;9.292;2023-02-03T07:17:25;301.38;;;199.77;;
74459;SDS011;62902;48.854;9.292;2023-02-03T07:19:51;297.20;;;195.27;;
74459;SDS011;62902;48.854;9.292;2023-02-03T07:22:18;293.77;;;194.23;;
74459;SDS011;62902;48.854;9.292;2023-02-03T07:24:44;288.10;;;184.35;;
74459;SDS011;62902;48.854;9.292;2023-02-03T07:27:11;268.88;;;171.35;;
74459;SDS011;62902;48.854;9.292;2023-02-03T07:29:38;263.40;;;162.75;;
74459;SDS011;62902;48.854;9.292;2023-02-03T07:32:04;253.18;;;155.52;;
74459;SDS011;62902;48.854;9.292;2023-02-03T07:34:31;246.57;;;150.02;;
74459;SDS011;62902;48.854;9.292;2023-02-03T07:36:58;236.32;;;142.55;;
74459;SDS011;62902;48.854;9.292;2023-02-03T07:39:24;242.27;;;145.73;;
74459;SDS011;62902;48.854;9.292;2023-02-03T07:41:51;232.57;;;140.35;;
74459;SDS011;62902;48.854;9.292;2023-02-03T07:44:20;237.65;;;141.02;;
74459;SDS011;62902;48.854;9.292;2023-02-03T07:46:46;219.32;;;131.35;;
74459;SDS011;62902;48.854;9.292;2023-02-03T07:49:13;219.07;;;130.45;;
74459;SDS011;62902;48.854;9.292;2023-02-03T07:51:40;215.60;;;129.15;;
74459;SDS011;62902;48.854;9.292;2023-02-03T07:54:07;216.13;;;128.82;;
74459;SDS011;62902;48.854;9.292;2023-02-03T07:56:34;210.20;;;126.60;;
74459;SDS011;62902;48.854;9.292;2023-02-03T07:59:00;208.82;;;124.82;;
74459;SDS011;62902;48.854;9.292;2023-02-03T08:01:27;207.88;;;124.22;;
74459;SDS011;62902;48.854;9.292;2023-02-03T08:03:54;206.05;;;122.82;;
74459;SDS011;62902;48.854;9.292;2023-02-03T08:06:21;205.13;;;121.88;;
74459;SDS011;62902;48.854;9.292;2023-02-03T08:08:48;202.57;;;120.72;;
74459;SDS011;62902;48.854;9.292;2023-02-03T08:11:14;203.00;;;120.93;;
74459;SDS011;62902;48.854;9.292;2023-02-03T08:13:41;202.65;;;120.38;;
74459;SDS011;62902;48.854;9.292;2023-02-03T08:16:07;200.30;;;119.70;;
74459;SDS011;62902;48.854;9.292;2023-02-03T08:18:34;197.48;;;117.43;;
74459;SDS011;62902;48.854;9.292;2023-02-03T08:21:00;197.68;;;117.63;;
74459;SDS011;62902;48.854;9.292;2023-02-03T08:23:29;198.38;;;117.75;;
74459;SDS011;62902;48.854;9.292;2023-02-03T08:25:56;195.55;;;117.38;;
74459;SDS011;62902;48.854;9.292;2023-02-03T08:28:23;196.35;;;117.03;;
74459;SDS011;62902;48.854;9.292;2023-02-03T08:30:49;194.50;;;117.30;;
74459;SDS011;62902;48.854;9.292;2023-02-03T08:33:16;203.68;;;120.43;;
74459;SDS011;62902;48.854;9.292;2023-02-03T08:35:46;194.20;;;115.68;;
74459;SDS011;62902;48.854;9.292;2023-02-03T08:38:14;197.55;;;118.78;;
74459;SDS011;62902;48.854;9.292;2023-02-03T08:40:41;191.77;;;115.68;;
74459;SDS011;62902;48.854;9.292;2023-02-03T08:43:07;192.52;;;115.43;;
74459;SDS011;62902;48.854;9.292;2023-02-03T08:45:34;194.57;;;117.00;;
74459;SDS011;62902;48.854;9.292;2023-02-03T08:48:01;194.10;;;116.72;;
74459;SDS011;62902;48.854;9.292;2023-02-03T08:50:27;192.48;;;115.10;;
74459;SDS011;62902;48.854;9.292;2023-02-03T08:52:54;193.48;;;116.80;;
74459;SDS011;62902;48.854;9.292;2023-02-03T08:55:21;192.00;;;114.80;;
74459;SDS011;62902;48.854;9.292;2023-02-03T08:57:47;193.82;;;117.25;;
74459;SDS011;62902;48.854;9.292;2023-02-03T09:00:14;195.70;;;118.43;;
74459;SDS011;62902;48.854;9.292;2023-02-03T09:02:41;189.48;;;114.90;;
74459;SDS011;62902;48.854;9.292;2023-02-03T09:05:08;191.93;;;115.40;;
74459;SDS011;62902;48.854;9.292;2023-02-03T09:07:35;198.45;;;118.35;;
74459;SDS011;62902;48.854;9.292;2023-02-03T09:10:01;209.85;;;121.65;;
74459;SDS011;62902;48.854;9.292;2023-02-03T09:12:29;226.00;;;128.50;;
74459;SDS011;62902;48.854;9.292;2023-02-03T09:14:55;236.48;;;135.38;;
74459;SDS011;62902;48.854;9.292;2023-02-03T09:17:22;232.68;;;134.02;;
74459;SDS011;62902;48.854;9.292;2023-02-03T09:19:49;229.02;;;130.05;;
74459;SDS011;62902;48.854;9.292;2023-02-03T09:22:15;241.48;;;135.25;;
74459;SDS011;62902;48.854;9.292;2023-02-03T09:24:42;240.70;;;136.85;;
74459;SDS011;62902;48.854;9.292;2023-02-03T09:27:09;236.85;;;134.55;;
74459;SDS011;62902;48.854;9.292;2023-02-03T09:29:36;237.15;;;134.88;;
74459;SDS011;62902;48.854;9.292;2023-02-03T09:32:02;235.77;;;134.18;;
74459;SDS011;62902;48.854;9.292;2023-02-03T09:34:34;235.63;;;133.85;;
74459;SDS011;62902;48.854;9.292;2023-02-03T09:37:00;245.13;;;137.48;;
74459;SDS011;62902;48.854;9.292;2023-02-03T09:39:27;252.90;;;140.85;;
74459;SDS011;62902;48.854;9.292;2023-02-03T09:45:13;263.58;;;146.52;;
74459;SDS011;62902;48.854;9.292;2023-02-03T09:47:45;228.18;;;129.55;;
74459;SDS011;62902;48.854;9.292;2023-02-03T09:50:19;251.73;;;140.73;;
74459;SDS011;62902;48.854;9.292;2023-02-03T09:52:48;224.38;;;127.65;;
74459;SDS011;62902;48.854;9.292;2023-02-03T09:55:26;221.88;;;124.65;;
74459;SDS011;62902;48.854;9.292;2023-02-03T09:58:04;219.57;;;124.18;;
74459;SDS011;62902;48.854;9.292;2023-02-03T10:00:47;221.20;;;126.75;;
74459;SDS011;62902;48.854;9.292;2023-02-03T10:15:48;251.05;;;139.85;;
74459;SDS011;62902;48.854;9.292;2023-02-03T10:18:23;251.57;;;138.05;;
74459;SDS011;62902;48.854;9.292;2023-02-03T10:20:57;248.25;;;135.60;;
74459;SDS011;62902;48.854;9.292;2023-02-03T10:23:30;247.60;;;134.88;;
74459;SDS011;62902;48.854;9.292;2023-02-03T10:26:00;240.77;;;132.80;;
74459;SDS011;62902;48.854;9.292;2023-02-03T10:28:30;239.85;;;131.82;;
74459;SDS011;62902;48.854;9.292;2023-02-03T10:30:59;235.82;;;130.02;;
74459;SDS011;62902;48.854;9.292;2023-02-03T10:33:28;239.48;;;130.38;;
74459;SDS011;62902;48.854;9.292;2023-02-03T10:41:13;232.88;;;130.15;;
74459;SDS011;62902;48.854;9.292;2023-02-03T10:43:40;232.68;;;129.52;;
74459;SDS011;62902;48.854;9.292;2023-02-03T10:46:14;231.52;;;128.93;;
74459;SDS011;62902;48.854;9.292;2023-02-03T10:48:41;232.48;;;130.50;;
74459;SDS011;62902;48.854;9.292;2023-02-03T10:51:18;236.13;;;130.80;;
74459;SDS011;62902;48.854;9.292;2023-02-03T10:53:56;244.15;;;134.43;;
74459;SDS011;62902;48.854;9.292;2023-02-03T10:56:44;246.48;;;135.73;;
74459;SDS011;62902;48.854;9.292;2023-02-03T10:59:21;245.07;;;134.40;;
74459;SDS011;62902;48.854;9.292;2023-02-03T11:01:53;247.82;;;136.52;;
74459;SDS011;62902;48.854;9.292;2023-02-03T11:04:27;260.95;;;143.45;;
74459;SDS011;62902;48.854;9.292;2023-02-03T11:06:57;249.63;;;136.07;;
74459;SDS011;62902;48.854;9.292;2023-02-03T11:09:30;255.65;;;139.27;;
74459;SDS011;62902;48.854;9.292;2023-02-03T11:12:11;244.10;;;134.80;;
74459;SDS011;62902;48.854;9.292;2023-02-03T11:14:40;242.43;;;133.88;;
74459;SDS011;62902;48.854;9.292;2023-02-03T11:17:25;248.80;;;137.57;;
74459;SDS011;62902;48.854;9.292;2023-02-03T11:19:53;245.70;;;135.60;;
74459;SDS011;62902;48.854;9.292;2023-02-03T11:22:27;239.68;;;132.07;;
74459;SDS011;62902;48.854;9.292;2023-02-03T11:24:56;239.50;;;131.13;;
74459;SDS011;62902;48.854;9.292;2023-02-03T11:27:23;239.68;;;132.10;;
74459;SDS011;62902;48.854;9.292;2023-02-03T11:29:52;237.18;;;130.25;;
74459;SDS011;62902;48.854;9.292;2023-02-03T11:32:33;242.13;;;133.00;;
74459;SDS011;62902;48.854;9.292;2023-02-03T11:35:02;242.95;;;132.52;;
74459;SDS011;62902;48.854;9.292;2023-02-03T11:37:34;247.23;;;133.35;;
74459;SDS011;62902;48.854;9.292;2023-02-03T11:45:28;253.52;;;138.80;;
74459;SDS011;62902;48.854;9.292;2023-02-03T11:50:44;249.10;;;136.13;;
74459;SDS011;62902;48.854;9.292;2023-02-03T12:05:16;251.05;;;136.57;;
74459;SDS011;62902;48.854;9.292;2023-02-03T12:07:57;264.60;;;142.65;;
74459;SDS011;62902;48.854;9.292;2023-02-03T12:10:38;246.77;;;135.30;;
74459;SDS011;62902;48.854;9.292;2023-02-03T12:21:36;231.88;;;128.05;;
74459;SDS011;62902;48.854;9.292;2023-02-03T12:24:13;234.10;;;127.75;;
74459;SDS011;62902;48.854;9.292;2023-02-03T12:32:00;240.60;;;131.25;;
74459;SDS011;62902;48.854;9.292;2023-02-03T12:37:04;239.80;;;130.02;;
74459;SDS011;62902;48.854;9.292;2023-02-03T12:45:04;238.02;;;130.32;;
74459;SDS011;62902;48.854;9.292;2023-02-03T12:47:51;233.07;;;129.18;;
74459;SDS011;62902;48.854;9.292;2023-02-03T12:53:10;228.57;;;127.05;;
74459;SDS011;62902;48.854;9.292;2023-02-03T12:55:44;231.55;;;128.60;;
74459;SDS011;62902;48.854;9.292;2023-02-03T12:58:19;223.82;;;124.95;;
74459;SDS011;62902;48.854;9.292;2023-02-03T13:00:53;221.60;;;123.35;;
74459;SDS011;62902;48.854;9.292;2023-02-03T13:06:42;221.65;;;123.40;;
74459;SDS011;62902;48.854;9.292;2023-02-03T13:09:22;223.77;;;125.07;;
74459;SDS011;62902;48.854;9.292;2023-02-03T13:17:17;219.18;;;123.35;;
74459;SDS011;62902;48.854;9.292;2023-02-03T13:19:47;220.32;;;123.50;;
74459;SDS011;62902;48.854;9.292;2023-02-03T13:22:16;213.52;;;119.72;;
74459;SDS011;62902;48.854;9.292;2023-02-03T13:24:45;214.05;;;120.72;;
74459;SDS011;62902;48.854;9.292;2023-02-03T13:30:07;215.93;;;122.15;;
74459;SDS011;62902;48.854;9.292;2023-02-03T13:38:15;221.20;;;122.97;;
74459;SDS011;62902;48.854;9.292;2023-02-03T13:40:52;218.50;;;122.35;;
74459;SDS011;62902;48.854;9.292;2023-02-03T13:43:28;219.40;;;124.35;;
74459;SDS011;62902;48.854;9.292;2023-02-03T13:46:05;227.10;;;126.97;;
74459;SDS011;62902;48.854;9.292;2023-02-03T13:48:34;246.75;;;137.07;;
74459;SDS011;62902;48.854;9.292;2023-02-03T13:51:19;231.52;;;127.80;;
74459;SDS011;62902;48.854;9.292;2023-02-03T13:53:47;221.00;;;123.43;;
74459;SDS011;62902;48.854;9.292;2023-02-03T13:56:16;216.98;;;121.07;;
74459;SDS011;62902;48.854;9.292;2023-02-03T14:01:39;215.07;;;120.40;;
74459;SDS011;62902;48.854;9.292;2023-02-03T14:04:07;214.25;;;120.53;;
74459;SDS011;62902;48.854;9.292;2023-02-03T14:06:54;212.10;;;119.90;;
74459;SDS011;62902;48.854;9.292;2023-02-03T14:12:30;220.40;;;123.65;;
74459;SDS011;62902;48.854;9.292;2023-02-03T14:15:12;221.25;;;124.35;;
74459;SDS011;62902;48.854;9.292;2023-02-03T14:23:05;228.75;;;125.63;;
74459;SDS011;62902;48.854;9.292;2023-02-03T14:25:44;230.60;;;128.45;;
74459;SDS011;62902;48.854;9.292;2023-02-03T14:28:15;229.30;;;128.38;;
74459;SDS011;62902;48.854;9.292;2023-02-03T14:36:32;238.07;;;132.23;;
74459;SDS011;62902;48.854;9.292;2023-02-03T14:39:02;229.60;;;127.90;;
74459;SDS011;62902;48.854;9.292;2023-02-03T14:41:42;239.77;;;132.90;;
74459;SDS011;62902;48.854;9.292;2023-02-03T14:44:27;241.48;;;133.52;;
74459;SDS011;62902;48.854;9.292;2023-02-03T14:47:18;239.25;;;133.07;;
74459;SDS011;62902;48.854;9.292;2023-02-03T14:50:13;237.48;;;131.13;;
74459;SDS011;62902;48.854;9.292;2023-02-03T15:00:52;241.57;;;133.43;;
74459;SDS011;62902;48.854;9.292;2023-02-03T15:03:21;238.55;;;132.77;;
74459;SDS011;62902;48.854;9.292;2023-02-03T15:05:55;242.95;;;133.95;;
74459;SDS011;62902;48.854;9.292;2023-02-03T15:10:56;241.65;;;134.93;;
74459;SDS011;62902;48.854;9.292;2023-02-03T15:13:26;235.70;;;132.27;;
74459;SDS011;62902;48.854;9.292;2023-02-03T15:15:58;236.45;;;131.07;;
74459;SDS011;62902;48.854;9.292;2023-02-03T15:18:27;248.85;;;135.88;;
74459;SDS011;62902;48.854;9.292;2023-02-03T15:20:54;245.57;;;135.18;;
74459;SDS011;62902;48.854;9.292;2023-02-03T15:23:22;243.10;;;134.65;;
74459;SDS011;62902;48.854;9.292;2023-02-03T15:25:57;239.38;;;133.65;;
74459;SDS011;62902;48.854;9.292;2023-02-03T15:28:27;241.48;;;133.10;;
74459;SDS011;62902;48.854;9.292;2023-02-03T15:33:25;231.93;;;128.88;;
74459;SDS011;62902;48.854;9.292;2023-02-03T15:35:54;229.60;;;127.97;;
74459;SDS011;62902;48.854;9.292;2023-02-03T15:38:28;231.75;;;129.98;;
74459;SDS011;62902;48.854;9.292;2023-02-03T15:40:57;230.65;;;127.75;;
74459;SDS011;62902;48.854;9.292;2023-02-03T15:43:37;230.35;;;129.18;;
74459;SDS011;62902;48.854;9.292;2023-02-03T15:49:15;229.48;;;129.40;;
74459;SDS011;62902;48.854;9.292;2023-02-03T15:52:05;229.60;;;128.50;;
74459;SDS011;62902;48.854;9.292;2023-02-03T15:54:39;222.07;;;124.22;;
74459;SDS011;62902;48.854;9.292;2023-02-03T15:57:08;221.50;;;124.82;;
74459;SDS011;62902;48.854;9.292;2023-02-03T15:59:41;219.32;;;123.03;;
74459;SDS011;62902;48.854;9.292;2023-02-03T16:02:20;217.85;;;124.22;;
74459;SDS011;62902;48.854;9.292;2023-02-03T16:04:48;222.05;;;125.30;;
74459;SDS011;62902;48.854;9.292;2023-02-03T16:07:17;222.90;;;126.82;;
74459;SDS011;62902;48.854;9.292;2023-02-03T16:09:46;218.27;;;123.97;;
74459;SDS011;62902;48.854;9.292;2023-02-03T16:14:59;224.15;;;126.55;;
74459;SDS011;62902;48.854;9.292;2023-02-03T16:17:36;231.95;;;134.48;;
74459;SDS011;62902;48.854;9.292;2023-02-03T16:22:44;230.35;;;132.95;;
74459;SDS011;62902;48.854;9.292;2023-02-03T16:25:14;225.18;;;128.48;;
74459;SDS011;62902;48.854;9.292;2023-02-03T16:27:54;232.75;;;132.30;;
74459;SDS011;62902;48.854;9.292;2023-02-03T16:31:00;228.35;;;131.70;;
74459;SDS011;62902;48.854;9.292;2023-02-03T16:33:59;223.13;;;129.65;;
74459;SDS011;62902;48.854;9.292;2023-02-03T16:39:30;220.27;;;130.48;;
74459;SDS011;62902;48.854;9.292;2023-02-03T16:48:09;210.93;;;123.85;;
74459;SDS011;62902;48.854;9.292;2023-02-03T16:50:55;206.02;;;120.13;;
74459;SDS011;62902;48.854;9.292;2023-02-03T16:53:25;220.27;;;126.63;;
74459;SDS011;62902;48.854;9.292;2023-02-03T16:56:00;228.35;;;132.65;;
74459;SDS011;62902;48.854;9.292;2023-02-03T16:58:29;237.50;;;139.75;;
74459;SDS011;62902;48.854;9.292;2023-02-03T17:00:58;238.32;;;139.43;;